createdAt,value
2023-02-24T00:01:25.036Z,94628.63
2023-02-24T00:03:53.668Z,94619.00
2023-02-24T00:06:21.361Z,94611.16
2023-02-24T00:08:56.512Z,94614.75
2023-02-24T00:11:24.143Z,94606.91
2023-02-24T00:13:52.062Z,94606.91
2023-02-24T00:16:20.770Z,94612.97
2023-02-24T00:18:49.344Z,94605.31
2023-02-24T00:21:18.330Z,94606.91
2023-02-24T00:23:47.812Z,94599.25
2023-02-24T00:26:18.060Z,94604.31
2023-02-24T00:28:45.689Z,94599.09
2023-02-24T00:31:15.545Z,94600.72
2023-02-24T00:33:45.386Z,94600.72
2023-02-24T00:36:15.422Z,94593.72
2023-02-24T00:38:46.771Z,94597.28
2023-02-24T00:41:17.906Z,94591.25
2023-02-24T00:43:47.681Z,94599.91
2023-02-24T00:46:17.267Z,94597.28
2023-02-24T00:48:46.979Z,94593.84
2023-02-24T00:51:18.052Z,94594.03
2023-02-24T00:53:46.047Z,94591.41
2023-02-24T00:56:13.725Z,94582.63
2023-02-24T00:58:44.846Z,94579.19
2023-02-24T01:01:15.082Z,94580.81
2023-02-24T01:03:43.129Z,94581.78
2023-02-24T01:06:12.312Z,94578.38
2023-02-24T01:08:42.735Z,94577.53
2023-02-24T01:11:28.318Z,94580.97
2023-02-24T01:13:57.507Z,94571.53
2023-02-24T01:16:25.130Z,94562.88
2023-02-24T01:18:53.268Z,94565.47
2023-02-24T01:21:22.064Z,94547.34
2023-02-24T01:23:50.842Z,94550.63
2023-02-24T01:26:19.570Z,94559.44
2023-02-24T01:28:48.062Z,94546.38
2023-02-24T01:31:18.457Z,94548.16
2023-02-24T01:33:46.738Z,94549.97
2023-02-24T01:36:16.216Z,94542.94
2023-02-24T01:38:44.851Z,94542.31
2023-02-24T01:41:16.811Z,94542.13
2023-02-24T01:43:59.044Z,94537.91
2023-02-24T01:46:28.384Z,94542.31
2023-02-24T01:48:59.512Z,94540.50
2023-02-24T01:51:32.650Z,94540.50
2023-02-24T01:54:02.860Z,94537.91
2023-02-24T01:56:32.427Z,94539.53
2023-02-24T01:59:02.687Z,94534.28
2023-02-24T02:01:40.269Z,94529.06
2023-02-24T02:04:19.638Z,94520.28
2023-02-24T02:06:49.036Z,94519.44
2023-02-24T02:09:16.963Z,94516.69
2023-02-24T02:11:49.121Z,94511.63
2023-02-24T02:14:17.488Z,94509.00
2023-02-24T02:16:58.326Z,94507.22
2023-02-24T02:20:15.813Z,94509.84
2023-02-24T02:23:00.797Z,94511.63
2023-02-24T02:25:40.286Z,94505.44
2023-02-24T02:28:31.584Z,94497.75
2023-02-24T02:31:25.885Z,94509.00
2023-02-24T02:34:11.782Z,94504.78
2023-02-24T02:36:54.304Z,94501.34
2023-02-24T02:39:31.705Z,94500.53
2023-02-24T02:42:12.606Z,94498.91
2023-02-24T02:44:48.532Z,94505.75
2023-02-24T02:47:23.090Z,94502.31
2023-02-24T02:49:56.770Z,94505.94
2023-02-24T02:52:31.805Z,94501.53
2023-02-24T02:55:04.626Z,94501.53
2023-02-24T02:57:33.972Z,94507.53
2023-02-24T03:00:11.419Z,94497.09
2023-02-24T03:02:44.430Z,94501.53
2023-02-24T03:05:20.254Z,94495.47
2023-02-24T03:07:54.666Z,94487.66
2023-02-24T03:10:27.690Z,94489.44
2023-02-24T03:12:58.657Z,94496.44
2023-02-24T03:15:30.281Z,94488.63
2023-02-24T03:18:02.791Z,94480.78
2023-02-24T03:20:36.900Z,94492.06
2023-02-24T03:23:08.722Z,94491.22
2023-02-24T03:25:44.533Z,94491.22
2023-02-24T03:28:17.367Z,94486.81
2023-02-24T03:30:47.675Z,94485.03
2023-02-24T03:33:24.218Z,94495.47
2023-02-24T03:35:53.333Z,94492.88
2023-02-24T03:38:24.367Z,94491.09
2023-02-24T03:40:53.362Z,94488.28
2023-02-24T03:43:26.543Z,94486.66
2023-02-24T03:45:54.479Z,94487.47
2023-02-24T03:48:22.784Z,94478.81
2023-02-24T03:50:50.424Z,94477.03
2023-02-24T03:53:31.624Z,94476.06
2023-02-24T03:56:14.185Z,94471.81
2023-02-24T03:58:54.657Z,94480.47
2023-02-24T04:01:30.922Z,94475.41
2023-02-24T04:04:03.307Z,94467.59
2023-02-24T04:06:41.765Z,94471.16
2023-02-24T04:09:20.054Z,94468.56
2023-02-24T04:11:56.335Z,94461.53
2023-02-24T04:14:31.677Z,94464.16
2023-02-24T04:17:07.851Z,94452.88
2023-02-24T04:19:40.983Z,94456.50
2023-02-24T04:22:11.029Z,94452.25
2023-02-24T04:24:44.182Z,94448.66
2023-02-24T04:27:14.265Z,94457.47
2023-02-24T04:29:48.651Z,94453.06
2023-02-24T04:32:21.003Z,94449.63
2023-02-24T04:34:48.693Z,94450.44
2023-02-24T04:37:16.390Z,94447.19
2023-02-24T04:39:46.089Z,94438.38
2023-02-24T04:42:13.796Z,94442.78
2023-02-24T04:44:42.818Z,94436.56
2023-02-24T04:47:12.089Z,94430.53
2023-02-24T04:49:41.075Z,94430.53
2023-02-24T04:52:10.319Z,94425.31
2023-02-24T04:54:38.234Z,94423.69
2023-02-24T04:57:07.872Z,94421.88
2023-02-24T04:59:38.025Z,94419.28
2023-02-24T05:02:05.649Z,94411.44
2023-02-24T05:04:38.719Z,94400.03
2023-02-24T05:07:06.517Z,94397.25
2023-02-24T05:09:34.278Z,94398.88
2023-02-24T05:12:02.467Z,94396.91
2023-02-24T05:14:31.408Z,94392.50
2023-02-24T05:17:00.305Z,94398.38
2023-02-24T05:19:45.118Z,94381.91
2023-02-24T05:22:14.383Z,94375.53
2023-02-24T05:24:42.200Z,94384.19
2023-02-24T05:27:10.539Z,94374.53
2023-02-24T05:29:40.482Z,94376.16
2023-02-24T05:32:08.495Z,94367.50
2023-02-24T05:34:38.964Z,94364.09
2023-02-24T05:37:10.588Z,94369.97
2023-02-24T05:39:38.470Z,94359.53
2023-02-24T05:42:07.116Z,94358.53
2023-02-24T05:44:35.698Z,94364.75
2023-02-24T05:47:05.539Z,94355.94
2023-02-24T05:49:35.217Z,94357.72
2023-02-24T05:52:07.617Z,94362.94
2023-02-24T05:54:37.707Z,94360.31
2023-02-24T05:57:08.933Z,94359.34
2023-02-24T05:59:36.626Z,94358.53
2023-02-24T06:02:09.356Z,94358.53
2023-02-24T06:04:46.335Z,94357.72
2023-02-24T06:07:19.073Z,94356.09
2023-02-24T06:09:50.641Z,94357.72
2023-02-24T06:12:19.417Z,94362.16
2023-02-24T06:14:47.786Z,94362.94
2023-02-24T06:17:18.583Z,94349.88
2023-02-24T06:19:47.981Z,94354.13
2023-02-24T06:22:19.099Z,94361.97
2023-02-24T06:24:49.424Z,94354.13
2023-02-24T06:27:19.434Z,94354.94
2023-02-24T06:29:49.807Z,94363.56
2023-02-24T06:32:19.372Z,94358.53
2023-02-24T06:34:47.164Z,94356.75
2023-02-24T06:37:18.273Z,94360.19
2023-02-24T06:39:45.938Z,94360.19
2023-02-24T06:42:14.148Z,94359.19
2023-02-24T06:44:42.522Z,94359.34
2023-02-24T06:47:14.097Z,94367.00
2023-02-24T06:49:43.615Z,94364.41
2023-02-24T06:52:18.236Z,94374.03
2023-02-24T06:54:48.323Z,94374.84
2023-02-24T06:57:15.901Z,94371.41
2023-02-24T06:59:43.493Z,94370.44
2023-02-24T07:02:12.073Z,94365.41
2023-02-24T07:04:43.855Z,94375.66
2023-02-24T07:07:14.783Z,94371.41
2023-02-24T07:09:43.970Z,94370.44
2023-02-24T07:12:12.528Z,94374.84
2023-02-24T07:14:40.991Z,94362.59
2023-02-24T07:17:08.992Z,94364.41
2023-02-24T07:19:36.930Z,94363.56
2023-02-24T07:22:04.900Z,94357.72
2023-02-24T07:24:36.444Z,94359.53
2023-02-24T07:27:06.329Z,94357.72
2023-02-24T07:29:35.474Z,94357.72
2023-02-24T07:32:05.547Z,94355.09
2023-02-24T07:34:34.894Z,94353.50
2023-02-24T07:37:07.901Z,94346.63
2023-02-24T07:39:39.413Z,94352.50
2023-02-24T07:42:08.155Z,94345.66
2023-02-24T07:44:35.748Z,94344.00
2023-02-24T07:47:07.756Z,94337.97
2023-02-24T07:49:36.458Z,94336.19
2023-02-24T07:52:04.196Z,94344.84
2023-02-24T07:54:31.818Z,94337.97
2023-02-24T07:57:00.760Z,94338.78
2023-02-24T07:59:29.940Z,94331.97
2023-02-24T08:01:58.109Z,94333.75
2023-02-24T08:04:28.500Z,94333.75
2023-02-24T08:07:02.404Z,94338.97
2023-02-24T08:09:50.040Z,94335.53
2023-02-24T08:12:21.858Z,94331.13
2023-02-24T08:14:52.364Z,94330.31
2023-02-24T08:17:21.393Z,94324.13
2023-02-24T08:20:00.916Z,94318.91
2023-02-24T08:22:35.961Z,94318.91
2023-02-24T08:25:05.904Z,94312.69
2023-02-24T08:27:38.938Z,94315.28
2023-02-24T08:30:21.166Z,94303.06
2023-02-24T08:32:52.589Z,94316.94
2023-02-24T08:35:23.133Z,94309.94
2023-02-24T08:37:52.942Z,94309.09
2023-02-24T08:40:50.144Z,94301.28
2023-02-24T08:43:31.158Z,94298.66
2023-02-24T08:46:03.630Z,94291.66
2023-02-24T08:48:37.270Z,94293.44
2023-02-24T08:51:09.520Z,94289.03
2023-02-24T08:53:40.515Z,94285.59
2023-02-24T08:56:11.503Z,94284.59
2023-02-24T08:58:47.041Z,94283.00
2023-02-24T09:01:24.148Z,94276.94
2023-02-24T09:03:55.328Z,94276.94
2023-02-24T09:06:26.686Z,94276.94
2023-02-24T09:09:17.107Z,94278.75
2023-02-24T09:11:45.845Z,94278.75
2023-02-24T09:14:26.834Z,94268.31
2023-02-24T09:17:06.038Z,94264.88
2023-02-24T09:19:55.904Z,94263.06
2023-02-24T09:22:32.401Z,94262.25
2023-02-24T09:25:24.033Z,94259.66
2023-02-24T09:27:55.729Z,94256.25
2023-02-24T09:30:37.265Z,94248.56
2023-02-24T09:33:22.266Z,94241.72
2023-02-24T09:36:09.626Z,94236.31
2023-02-24T09:38:55.390Z,94232.09
2023-02-24T09:41:34.044Z,94238.94
2023-02-24T09:44:07.410Z,94225.88
2023-02-24T09:46:53.894Z,94232.09
2023-02-24T09:49:25.109Z,94223.28
2023-02-24T09:52:00.667Z,94222.44
2023-02-24T09:54:35.243Z,94221.47
2023-02-24T09:57:16.773Z,94217.22
2023-02-24T10:00:01.338Z,94215.44
2023-02-24T10:02:44.458Z,94210.84
2023-02-24T10:05:24.791Z,94198.81
2023-02-24T10:07:53.261Z,94197.81
2023-02-24T10:10:28.137Z,94206.47
2023-02-24T10:13:17.081Z,94199.44
2023-02-24T10:16:08.255Z,94198.44
2023-02-24T10:18:44.444Z,94188.00
2023-02-24T10:21:30.597Z,94178.38
2023-02-24T10:24:08.721Z,94186.19
2023-02-24T10:26:59.554Z,94181.81
2023-02-24T10:29:39.033Z,94180.16
2023-02-24T10:32:23.560Z,94174.94
2023-02-24T10:34:53.487Z,94170.72
2023-02-24T10:37:28.690Z,94171.69
2023-02-24T10:39:59.222Z,94170.53
2023-02-24T10:42:31.551Z,94163.72
2023-02-24T10:45:17.808Z,94162.88
2023-02-24T10:47:56.332Z,94160.28
2023-02-24T10:50:29.785Z,94149.00
2023-02-24T10:53:34.307Z,94149.84
2023-02-24T10:56:27.448Z,94144.63
2023-02-24T11:02:06.576Z,94139.38
2023-02-24T11:05:04.476Z,94134.16
2023-02-24T11:07:53.557Z,94135.78
2023-02-24T11:10:32.278Z,94129.91
2023-02-24T11:13:19.392Z,94122.09
2023-02-24T11:16:07.267Z,94121.94
2023-02-24T11:18:38.824Z,94115.06
2023-02-24T11:21:09.656Z,94106.25
2023-02-24T11:23:42.175Z,94106.25
2023-02-24T11:26:16.935Z,94094.53
2023-02-24T11:29:03.541Z,94094.06
2023-02-24T11:31:51.953Z,94091.81
2023-02-24T11:34:28.947Z,94084.34
2023-02-24T11:37:06.716Z,94082.91
2023-02-24T11:39:48.155Z,94072.78
2023-02-24T11:42:20.396Z,94073.94
2023-02-24T11:44:55.234Z,94061.91
2023-02-24T11:47:29.957Z,94051.81
2023-02-24T11:50:08.738Z,94046.59
2023-02-24T11:52:42.314Z,94045.75
2023-02-24T11:55:21.049Z,94039.56
2023-02-24T11:57:53.679Z,94043.97
2023-02-24T12:00:24.606Z,94039.13
2023-02-24T12:02:55.995Z,94033.09
2023-02-24T12:05:29.393Z,94021.84
2023-02-24T12:08:02.799Z,94023.63
2023-02-24T12:10:33.429Z,94014.97
2023-02-24T12:13:08.487Z,94019.84
2023-02-24T12:15:42.940Z,94008.44
2023-02-24T12:18:18.925Z,94011.06
2023-02-24T12:20:51.674Z,94004.19
2023-02-24T12:23:24.178Z,93999.16
2023-02-24T12:26:08.787Z,94003.56
2023-02-24T12:29:02.299Z,93997.91
2023-02-24T12:31:38.132Z,93990.06
2023-02-24T12:34:14.429Z,93988.44
2023-02-24T12:37:05.557Z,93983.22
2023-02-24T12:39:42.132Z,93973.59
2023-02-24T12:42:23.464Z,93972.16
2023-02-24T12:44:58.567Z,93973.13
2023-02-24T12:47:33.930Z,93968.72
2023-02-24T12:50:14.166Z,93976.19
2023-02-24T12:52:53.944Z,93976.38
2023-02-24T12:55:26.371Z,93972.97
2023-02-24T12:58:03.287Z,93959.91
2023-02-24T13:00:43.757Z,93957.13
2023-02-24T13:03:28.628Z,93958.28
2023-02-24T13:06:07.380Z,93955.03
2023-02-24T13:08:48.808Z,93941.19
2023-02-24T13:11:27.756Z,93949.00
2023-02-24T13:14:04.673Z,93945.59
2023-02-24T13:16:35.530Z,93941.19
2023-02-24T13:19:08.041Z,93943.00
2023-02-24T13:21:35.802Z,93930.28
2023-02-24T13:24:05.106Z,93929.47
2023-02-24T13:26:33.921Z,93933.72
2023-02-24T13:29:04.174Z,93926.53
2023-02-24T13:31:43.775Z,93925.72
2023-02-24T13:34:16.612Z,93913.47
2023-02-24T13:36:48.476Z,93913.47
2023-02-24T13:39:27.143Z,93915.28
2023-02-24T13:42:04.713Z,93908.41
2023-02-24T13:44:32.823Z,93899.00
2023-02-24T13:47:32.317Z,93904.03
2023-02-24T13:50:15.947Z,93898.16
2023-02-24T13:52:57.862Z,93896.56
2023-02-24T13:55:39.684Z,93894.13
2023-02-24T13:58:28.864Z,93902.94
2023-02-24T14:01:08.472Z,93906.38
2023-02-24T14:03:39.830Z,93896.09
2023-02-24T14:06:14.225Z,93890.44
2023-02-24T14:08:45.696Z,93894.84
2023-02-24T14:11:17.380Z,93894.66
2023-02-24T14:13:48.301Z,93886.81
2023-02-24T14:16:21.639Z,93891.41
2023-02-24T14:18:57.178Z,93887.19
2023-02-24T14:21:27.149Z,93893.22
2023-02-24T14:23:59.801Z,93880.50
2023-02-24T14:26:33.317Z,93869.06
2023-02-24T14:29:03.341Z,93876.09
2023-02-24T14:31:31.492Z,93871.66
2023-02-24T14:34:02.421Z,93868.56
2023-02-24T14:36:34.203Z,93872.28
2023-02-24T14:39:08.971Z,93871.91
2023-02-24T14:41:37.934Z,93867.16
2023-02-24T14:44:21.765Z,93857.34
2023-02-24T14:46:51.355Z,93849.94
2023-02-24T14:49:22.482Z,93848.78
2023-02-24T14:51:54.913Z,93837.19
2023-02-24T14:54:30.018Z,93845.63
2023-02-24T14:57:00.165Z,93839.25
2023-02-24T14:59:32.535Z,93833.06
2023-02-24T15:02:02.696Z,93844.13
2023-02-24T15:04:36.908Z,93840.50
2023-02-24T15:07:07.026Z,93837.72
2023-02-24T15:09:37.685Z,93841.94
2023-02-24T15:12:13.558Z,93824.50
2023-02-24T15:14:48.044Z,93802.78
2023-02-24T15:17:19.256Z,93826.91
2023-02-24T15:19:49.158Z,93812.06
2023-02-24T15:22:25.669Z,93822.50
2023-02-24T15:24:55.737Z,93827.53
2023-02-24T15:27:29.591Z,93824.94
2023-02-24T15:30:06.722Z,93825.56
2023-02-24T15:32:37.663Z,93817.72
2023-02-24T15:35:07.660Z,93810.69
2023-02-24T15:37:42.043Z,93803.69
2023-02-24T15:40:20.786Z,93802.88
2023-02-24T15:42:55.508Z,93796.66
2023-02-24T15:45:27.119Z,93788.84
2023-02-24T15:47:56.462Z,93789.63
2023-02-24T15:50:24.734Z,93773.19
2023-02-24T15:52:52.473Z,93773.97
2023-02-24T15:55:21.770Z,93768.59
2023-02-24T15:58:00.201Z,93768.59
2023-02-24T16:00:28.437Z,93765.78
2023-02-24T16:02:56.272Z,93751.09
2023-02-24T16:05:24.443Z,93758.94
2023-02-24T16:07:53.285Z,93749.31
2023-02-24T16:10:22.728Z,93750.13
2023-02-24T16:12:52.925Z,93745.88
2023-02-24T16:15:26.457Z,93747.50
2023-02-24T16:17:54.576Z,93739.69
2023-02-24T16:20:27.389Z,93746.53
2023-02-24T16:22:59.658Z,93737.88
2023-02-24T16:25:28.073Z,93750.94
2023-02-24T16:27:58.111Z,93751.75
2023-02-24T16:30:30.554Z,93749.13
2023-02-24T16:32:59.993Z,93743.91
2023-02-24T16:35:29.205Z,93742.09
2023-02-24T16:37:56.902Z,93751.56
2023-02-24T16:40:30.647Z,93765.41
2023-02-24T16:42:58.474Z,93775.88
2023-02-24T16:45:30.199Z,93777.66
2023-02-24T16:48:02.549Z,93774.84
2023-02-24T16:50:34.868Z,93766.22
2023-02-24T16:53:02.603Z,93774.03
2023-02-24T16:55:30.218Z,93760.81
2023-02-24T16:57:57.883Z,93766.88
2023-02-24T17:00:25.653Z,93771.25
2023-02-24T17:02:54.727Z,93771.25
2023-02-24T17:05:25.137Z,93774.69
2023-02-24T17:07:55.833Z,93779.09
2023-02-24T17:10:24.616Z,93775.66
2023-02-24T17:12:52.993Z,93767.03
2023-02-24T17:15:22.997Z,93754.78
2023-02-24T17:17:51.020Z,93768.66
2023-02-24T17:20:21.561Z,93744.34
2023-02-24T17:22:49.492Z,93756.41
2023-02-24T17:25:18.958Z,93753.81
2023-02-24T17:27:46.625Z,93771.25
2023-02-24T17:30:16.192Z,93752.19
2023-02-24T17:32:43.911Z,93738.31
2023-02-24T17:35:11.610Z,93729.50
2023-02-24T17:37:40.596Z,93739.94
2023-02-24T17:40:09.411Z,93757.41
2023-02-24T17:42:37.155Z,93755.41
2023-02-24T17:45:05.606Z,93746.75
2023-02-24T17:47:34.393Z,93734.72
2023-02-24T17:50:02.208Z,93719.69
2023-02-24T17:52:32.242Z,93721.47
2023-02-24T17:55:01.231Z,93710.22
2023-02-24T17:57:29.460Z,93714.44
2023-02-24T17:59:57.229Z,93710.22
2023-02-24T18:02:25.251Z,93698.97
2023-02-24T18:04:52.951Z,93703.00
2023-02-24T18:07:21.087Z,93697.78
2023-02-24T18:09:48.898Z,93695.16
2023-02-24T18:12:18.639Z,93688.16
2023-02-24T18:14:48.397Z,93684.56
2023-02-24T18:17:17.474Z,93686.34
2023-02-24T18:19:45.119Z,93681.94
2023-02-24T18:22:12.856Z,93677.50
2023-02-24T18:24:40.506Z,93667.06
2023-02-24T18:27:09.223Z,93664.47
2023-02-24T18:29:38.221Z,93657.44
2023-02-24T18:32:06.092Z,93661.84
2023-02-24T18:34:33.817Z,93656.63
2023-02-24T18:37:01.589Z,93662.66
2023-02-24T18:39:29.597Z,93657.44
2023-02-24T18:41:59.494Z,93650.41
2023-02-24T18:44:27.260Z,93651.41
2023-02-24T18:46:56.276Z,93649.59
2023-02-24T18:49:24.102Z,93643.56
2023-02-24T18:51:51.747Z,93646.19
2023-02-24T18:54:20.135Z,93644.38
2023-02-24T18:56:47.748Z,93638.34
2023-02-24T18:59:15.450Z,93642.59
2023-02-24T19:01:43.073Z,93640.97
2023-02-24T19:04:12.853Z,93646.19
2023-02-24T19:06:41.628Z,93647.00
2023-02-24T19:09:11.857Z,93633.13
2023-02-24T19:11:40.469Z,93641.97
2023-02-24T19:14:09.886Z,93645.19
2023-02-24T19:16:39.249Z,93639.16
2023-02-24T19:19:07.198Z,93637.38
2023-02-24T19:21:36.449Z,93634.75
2023-02-24T19:24:07.974Z,93641.78
2023-02-24T19:26:35.786Z,93639.16
2023-02-24T19:29:04.286Z,93632.16
2023-02-24T19:31:33.330Z,93634.75
2023-02-24T19:34:03.292Z,93660.88
2023-02-24T19:36:32.349Z,93679.97
2023-02-24T19:39:01.492Z,93677.34
2023-02-24T19:41:29.223Z,93666.72
2023-02-24T19:43:56.882Z,93648.44
2023-02-24T19:46:24.796Z,93640.59
2023-02-24T19:48:52.763Z,93643.00
2023-02-24T19:51:23.569Z,93633.38
2023-02-24T19:53:53.035Z,93647.06
2023-02-24T19:56:25.056Z,93633.38
2023-02-24T19:58:54.349Z,93635.78
2023-02-24T20:01:22.234Z,93634.81
2023-02-24T20:03:50.210Z,93633.19
2023-02-24T20:06:19.552Z,93639.22
2023-02-24T20:08:47.340Z,93640.84
2023-02-24T20:11:15.117Z,93640.03
2023-02-24T20:13:44.230Z,93645.06
2023-02-24T20:16:13.564Z,93642.44
2023-02-24T20:18:41.925Z,93651.28
2023-02-24T20:21:11.183Z,93653.91
2023-02-24T20:23:39.674Z,93640.03
2023-02-24T20:26:07.639Z,93634.00
2023-02-24T20:28:35.278Z,93626.16
2023-02-24T20:31:09.459Z,93628.78
2023-02-24T20:33:37.223Z,93616.72
2023-02-24T20:36:08.889Z,93616.72
2023-02-24T20:38:36.507Z,93619.16
2023-02-24T20:41:04.253Z,93623.56
2023-02-24T20:43:32.038Z,93627.19
2023-02-24T20:46:00.059Z,93619.34
2023-02-24T20:48:29.039Z,93617.53
2023-02-24T20:50:56.652Z,93615.09
2023-02-24T20:53:24.275Z,93616.91
2023-02-24T20:55:51.863Z,93626.38
2023-02-24T20:58:19.485Z,93619.34
2023-02-24T21:00:47.060Z,93625.34
2023-02-24T21:03:14.663Z,93632.41
2023-02-24T21:05:44.885Z,93641.22
2023-02-24T21:08:12.477Z,93646.44
2023-02-24T21:10:44.643Z,93658.50
2023-02-24T21:13:12.454Z,93651.66
2023-02-24T21:15:40.214Z,93656.88
2023-02-24T21:18:09.878Z,93649.03
2023-02-24T21:20:37.481Z,93649.03
2023-02-24T21:23:09.284Z,93646.44
2023-02-24T21:25:37.831Z,93651.66
2023-02-24T21:28:05.786Z,93647.25
2023-02-24T21:30:33.417Z,93642.84
2023-02-24T21:33:01.063Z,93638.59
2023-02-24T21:35:28.646Z,93647.06
2023-02-24T21:37:56.244Z,93646.25
2023-02-24T21:40:25.232Z,93643.63
2023-02-24T21:42:52.837Z,93641.66
2023-02-24T21:45:20.500Z,93640.22
2023-02-24T21:47:48.157Z,93641.84
2023-02-24T21:50:16.739Z,93642.84
2023-02-24T21:52:46.621Z,93642.84
2023-02-24T21:55:15.104Z,93632.41
2023-02-24T21:57:45.712Z,93628.16
2023-02-24T22:00:19.545Z,93616.72
2023-02-24T22:02:48.644Z,93629.78
2023-02-24T22:05:16.962Z,93641.00
2023-02-24T22:07:44.957Z,93636.00
2023-02-24T22:10:15.015Z,93639.63
2023-02-24T22:12:44.217Z,93656.06
2023-02-24T22:15:12.849Z,93662.09
2023-02-24T22:17:41.532Z,93656.06
2023-02-24T22:20:12.482Z,93653.66
2023-02-24T22:22:42.178Z,93651.84
2023-02-24T22:25:11.333Z,93659.69
2023-02-24T22:27:39.518Z,93648.44
2023-02-24T22:30:10.309Z,93653.66
2023-02-24T22:32:38.014Z,93641.59
2023-02-24T22:35:06.492Z,93642.22
2023-02-24T22:37:34.671Z,93637.16
2023-02-24T22:40:02.286Z,93630.16
2023-02-24T22:42:29.959Z,93612.88
2023-02-24T22:44:57.578Z,93621.50
2023-02-24T22:47:26.514Z,93618.13
2023-02-24T22:49:54.174Z,93618.91
2023-02-24T22:52:21.800Z,93621.50
2023-02-24T22:54:49.434Z,93623.13
2023-02-24T22:57:17.145Z,93633.56
2023-02-24T22:59:45.066Z,93635.38
2023-02-24T23:02:12.693Z,93660.50
2023-02-24T23:04:41.667Z,93684.00
2023-02-24T23:07:10.006Z,93703.06
2023-02-24T23:09:37.852Z,93701.28
2023-02-24T23:12:06.164Z,93710.91
2023-02-24T23:14:33.823Z,93712.72
2023-02-24T23:17:01.461Z,93716.13
2023-02-24T23:19:29.845Z,93712.72
2023-02-24T23:21:58.814Z,93709.28
2023-02-24T23:24:26.383Z,93715.34
2023-02-24T23:26:57.520Z,93723.16
2023-02-24T23:29:26.475Z,93723.34
2023-02-24T23:31:54.689Z,93719.13
2023-02-24T23:34:22.389Z,93716.50
2023-02-24T23:36:50.217Z,93725.31
2023-02-24T23:39:23.776Z,93730.53
2023-02-24T23:41:56.718Z,93737.56
2023-02-24T23:44:24.969Z,93754.03
2023-02-24T23:46:52.577Z,93743.59
2023-02-24T23:49:20.323Z,93727.13
2023-02-24T23:51:49.087Z,93738.38
2023-02-24T23:54:17.074Z,93749.84
2023-02-24T23:56:46.479Z,93768.09
2023-02-24T23:59:14.230Z,93766.47
